Time;durP1;ratioP1;P1;durP2;ratioP2;P2;SDS_P1;SDS_P2;PMS_P1;PMS_P2;Temp;Humidity;BMP_temperature;BMP_pressure;BME280_temperature;BME280_humidity;BME280_pressure;Samples;Min_cycle;Max_cycle;Signal;HPM_P1;HPM_P2
2022/12/25 00:01:57;;;;;;;17.00;11.67;;;;;;;;;;4993564;28;20488;-46
2022/12/25 00:04:23;;;;;;;18.30;10.70;;;;;;;;;;4993238;28;20218;-46
2022/12/25 00:06:49;;;;;;;17.07;10.43;;;;;;;;;;4993365;28;20929;-46
2022/12/25 00:09:16;;;;;;;16.67;10.10;;;;;;;;;;4993128;28;20293;-46
2022/12/25 00:11:43;;;;;;;18.33;10.97;;;;;;;;;;4993286;28;20297;-46
2022/12/25 00:14:09;;;;;;;17.30;11.33;;;;;;;;;;4993171;28;20456;-47
2022/12/25 00:16:35;;;;;;;18.27;11.73;;;;;;;;;;4993269;28;20912;-46
2022/12/25 00:19:01;;;;;;;14.50;10.87;;;;;;;;;;4993104;28;20206;-47
2022/12/25 00:21:27;;;;;;;17.00;10.83;;;;;;;;;;4993068;28;20304;-46
2022/12/25 00:23:54;;;;;;;15.30;10.20;;;;;;;;;;4993078;28;20225;-48
2022/12/25 00:26:20;;;;;;;15.40;11.13;;;;;;;;;;4992987;28;20521;-48
2022/12/25 00:28:47;;;;;;;19.20;11.97;;;;;;;;;;4992970;28;20445;-48
2022/12/25 00:31:14;;;;;;;17.60;10.70;;;;;;;;;;4992695;28;20933;-48
2022/12/25 00:33:42;;;;;;;15.57;10.07;;;;;;;;;;4992862;28;20440;-47
2022/12/25 00:36:11;;;;;;;20.00;10.73;;;;;;;;;;4993113;28;20441;-45
2022/12/25 00:38:37;;;;;;;19.10;12.10;;;;;;;;;;4992783;28;20832;-46
2022/12/25 00:41:04;;;;;;;16.13;11.13;;;;;;;;;;4992737;28;20442;-46
2022/12/25 00:43:30;;;;;;;16.17;9.87;;;;;;;;;;4992875;28;20505;-48
2022/12/25 00:45:59;;;;;;;19.67;10.60;;;;;;;;;;4993032;28;20488;-47
2022/12/25 00:48:28;;;;;;;18.37;10.97;;;;;;;;;;4992851;28;20233;-48
2022/12/25 00:50:54;;;;;;;18.13;9.60;;;;;;;;;;4992857;28;20441;-47
2022/12/25 00:53:21;;;;;;;17.20;9.13;;;;;;;;;;4992689;28;20433;-48
2022/12/25 00:55:50;;;;;;;16.03;9.60;;;;;;;;;;4992846;28;20429;-48
2022/12/25 00:58:16;;;;;;;13.47;9.00;;;;;;;;;;4992696;28;20460;-47
2022/12/25 01:00:41;;;;;;;15.07;8.50;;;;;;;;;;4992775;28;20936;-47
2022/12/25 01:03:09;;;;;;;14.13;9.03;;;;;;;;;;4992166;28;20230;-47
2022/12/25 01:05:35;;;;;;;18.90;9.63;;;;;;;;;;4992428;28;20615;-47
2022/12/25 01:08:01;;;;;;;16.07;8.97;;;;;;;;;;4992578;28;21162;-47
2022/12/25 01:10:27;;;;;;;14.80;9.20;;;;;;;;;;4992615;28;20252;-47
2022/12/25 01:12:53;;;;;;;15.00;9.70;;;;;;;;;;4992312;28;20661;-47
2022/12/25 01:15:19;;;;;;;16.43;8.13;;;;;;;;;;4992354;28;20210;-47
2022/12/25 01:17:45;;;;;;;12.00;8.27;;;;;;;;;;4992463;28;20209;-47
2022/12/25 01:20:13;;;;;;;13.33;8.43;;;;;;;;;;4992529;28;20429;-47
2022/12/25 01:22:39;;;;;;;13.93;8.77;;;;;;;;;;4992185;28;20438;-47
2022/12/25 01:25:06;;;;;;;15.00;8.50;;;;;;;;;;4992327;28;20590;-47
2022/12/25 01:27:32;;;;;;;13.00;8.17;;;;;;;;;;4991944;28;20194;-47
2022/12/25 01:29:58;;;;;;;15.03;8.63;;;;;;;;;;4992274;28;20727;-47
2022/12/25 01:32:24;;;;;;;12.87;7.50;;;;;;;;;;4992114;28;20430;-47
2022/12/25 01:34:50;;;;;;;15.47;10.87;;;;;;;;;;4992122;28;20218;-46
2022/12/25 01:37:17;;;;;;;17.73;10.80;;;;;;;;;;4992040;28;20230;-47
2022/12/25 01:39:43;;;;;;;17.33;10.03;;;;;;;;;;4992241;28;20244;-46
2022/12/25 01:42:14;;;;;;;17.10;9.30;;;;;;;;;;4992172;28;20445;-46
2022/12/25 01:45:01;;;;;;;12.90;8.30;;;;;;;;;;4992309;28;20516;-47
2022/12/25 01:47:27;;;;;;;13.13;7.83;;;;;;;;;;4967013;28;20441;-47
2022/12/25 01:49:53;;;;;;;13.53;8.03;;;;;;;;;;4992187;28;20441;-47
2022/12/25 01:52:22;;;;;;;15.73;9.83;;;;;;;;;;4991972;28;20204;-47
2022/12/25 01:54:51;;;;;;;11.83;8.33;;;;;;;;;;4995584;28;20616;-47
2022/12/25 01:57:19;;;;;;;17.60;8.73;;;;;;;;;;4995971;28;20543;-47
2022/12/25 01:59:45;;;;;;;13.07;8.60;;;;;;;;;;4996134;28;20441;-47
2022/12/25 02:02:11;;;;;;;15.53;8.77;;;;;;;;;;4995993;28;20456;-47
2022/12/25 02:04:40;;;;;;;14.27;8.10;;;;;;;;;;4995825;28;20230;-47
2022/12/25 02:07:08;;;;;;;14.20;8.13;;;;;;;;;;4995867;28;20449;-47
2022/12/25 02:09:36;;;;;;;11.43;8.73;;;;;;;;;;4995911;28;20859;-47
2022/12/25 02:12:02;;;;;;;17.07;9.57;;;;;;;;;;4995993;28;20453;-47
2022/12/25 02:14:30;;;;;;;16.10;8.60;;;;;;;;;;4995689;28;20460;-46
2022/12/25 02:17:01;;;;;;;18.93;9.10;;;;;;;;;;4995756;28;20480;-46
2022/12/25 02:19:36;;;;;;;18.53;9.80;;;;;;;;;;4995594;28;20451;-46
2022/12/25 02:22:06;;;;;;;15.37;9.87;;;;;;;;;;4995666;28;20448;-46
2022/12/25 02:24:41;;;;;;;16.10;9.00;;;;;;;;;;4995507;28;20553;-46
2022/12/25 02:27:13;;;;;;;17.37;9.10;;;;;;;;;;4995718;28;20476;-46
2022/12/25 02:29:47;;;;;;;18.13;8.97;;;;;;;;;;4995519;28;20202;-46
2022/12/25 02:32:15;;;;;;;13.27;8.33;;;;;;;;;;4995401;28;20472;-46
2022/12/25 02:34:43;;;;;;;15.63;9.43;;;;;;;;;;4995416;28;20230;-46
2022/12/25 02:37:12;;;;;;;13.23;9.10;;;;;;;;;;4995253;28;20473;-46
2022/12/25 02:39:57;;;;;;;13.37;8.77;;;;;;;;;;4995143;28;20489;-46
2022/12/25 03:06:41;;;;;;;18.93;8.67;;;;;;;;;;4995252;28;20448;-46
2022/12/25 03:07:18;;;;;;;17.40;8.37;;;;;;;;;;4994813;28;20428;-46
2022/12/25 03:12:41;;;;;;;16.00;8.93;;;;;;;;;;4994773;28;20424;-47
2022/12/25 03:17:55;;;;;;;13.93;8.60;;;;;;;;;;4994750;28;20487;-47
2022/12/25 03:28:36;;;;;;;17.10;7.60;;;;;;;;;;4994493;28;20421;-47
2022/12/25 03:31:10;;;;;;;11.83;7.80;;;;;;;;;;4994308;28;20808;-47
2022/12/25 03:36:33;;;;;;;19.40;8.47;;;;;;;;;;4994314;28;20428;-47
2022/12/25 03:45:03;;;;;;;22.50;9.00;;;;;;;;;;4993668;28;21119;-47
2022/12/25 04:37:18;;;;;;;30.30;10.90;;;;;;;;;;4992782;28;20456;-45
2022/12/25 04:39:46;;;;;;;19.17;8.80;;;;;;;;;;4992860;28;20465;-45
2022/12/25 04:42:12;;;;;;;21.40;8.67;;;;;;;;;;4992837;28;20202;-46
2022/12/25 04:44:38;;;;;;;21.07;9.17;;;;;;;;;;4992598;28;20603;-46
2022/12/25 04:47:04;;;;;;;23.53;8.60;;;;;;;;;;4993023;28;20233;-45
2022/12/25 04:49:30;;;;;;;18.37;8.23;;;;;;;;;;4992591;28;20221;-45
2022/12/25 04:51:56;;;;;;;12.27;7.73;;;;;;;;;;4992685;28;20932;-45
2022/12/25 04:54:23;;;;;;;18.90;9.53;;;;;;;;;;4992562;28;20236;-46
2022/12/25 04:56:50;;;;;;;18.23;8.53;;;;;;;;;;4992657;28;20281;-45
2022/12/25 04:59:16;;;;;;;26.43;9.43;;;;;;;;;;4992554;28;20460;-46
2022/12/25 05:01:42;;;;;;;18.53;8.83;;;;;;;;;;4992371;28;20448;-46
2022/12/25 05:04:08;;;;;;;20.77;8.73;;;;;;;;;;4992382;28;20264;-45
2022/12/25 05:06:34;;;;;;;29.03;9.50;;;;;;;;;;4992484;28;20206;-46
2022/12/25 05:09:00;;;;;;;20.83;8.03;;;;;;;;;;4992395;28;20206;-45
2022/12/25 05:11:26;;;;;;;22.83;8.57;;;;;;;;;;4992303;28;20210;-45
2022/12/25 05:13:53;;;;;;;21.87;8.43;;;;;;;;;;4992337;28;20274;-46
2022/12/25 05:16:20;;;;;;;17.37;7.57;;;;;;;;;;4992380;28;20508;-46
2022/12/25 05:18:48;;;;;;;17.13;8.43;;;;;;;;;;4992348;28;20920;-46
2022/12/25 05:21:13;;;;;;;16.60;7.33;;;;;;;;;;4992246;28;20520;-46
2022/12/25 05:23:49;;;;;;;16.60;7.90;;;;;;;;;;4990884;28;20840;-46
2022/12/25 05:26:15;;;;;;;13.53;7.83;;;;;;;;;;4992008;28;20621;-45
2022/12/25 05:28:41;;;;;;;18.87;8.30;;;;;;;;;;4992089;28;20203;-45
2022/12/25 05:31:09;;;;;;;18.43;8.53;;;;;;;;;;4992146;28;20432;-46
2022/12/25 05:33:35;;;;;;;17.27;7.47;;;;;;;;;;4991725;28;20859;-46
2022/12/25 05:36:01;;;;;;;18.37;7.73;;;;;;;;;;4991924;28;20429;-46
2022/12/25 05:38:27;;;;;;;13.53;6.87;;;;;;;;;;4991909;28;20198;-46
2022/12/25 05:40:53;;;;;;;23.30;7.83;;;;;;;;;;4991799;28;20549;-45
2022/12/25 05:43:19;;;;;;;21.83;8.47;;;;;;;;;;4991897;28;20248;-46
2022/12/25 05:45:46;;;;;;;19.87;7.67;;;;;;;;;;4991872;28;20217;-45
2022/12/25 05:48:14;;;;;;;17.40;8.23;;;;;;;;;;4991976;28;20445;-45
2022/12/25 05:50:39;;;;;;;17.93;8.40;;;;;;;;;;4991577;28;20216;-46
2022/12/25 05:53:05;;;;;;;21.20;8.47;;;;;;;;;;4991891;28;20469;-46
2022/12/25 05:55:33;;;;;;;21.80;8.63;;;;;;;;;;4991759;28;20198;-46
2022/12/25 05:57:59;;;;;;;21.63;8.20;;;;;;;;;;4991662;28;20669;-46
2022/12/25 06:00:25;;;;;;;18.47;7.53;;;;;;;;;;4991672;28;20442;-46
2022/12/25 06:02:51;;;;;;;23.10;9.00;;;;;;;;;;4991937;28;20706;-46
2022/12/25 06:05:18;;;;;;;15.53;7.60;;;;;;;;;;4991596;28;20252;-46
2022/12/25 06:07:44;;;;;;;19.13;7.83;;;;;;;;;;4991649;28;20291;-46
2022/12/25 06:10:10;;;;;;;16.87;7.43;;;;;;;;;;4991734;28;20507;-46
2022/12/25 06:12:36;;;;;;;19.07;7.47;;;;;;;;;;4991623;28;20445;-46
2022/12/25 06:15:02;;;;;;;18.40;7.53;;;;;;;;;;4991770;28;20445;-46
2022/12/25 06:17:28;;;;;;;19.93;7.90;;;;;;;;;;4991705;28;20495;-45
2022/12/25 06:19:54;;;;;;;19.03;7.87;;;;;;;;;;4991881;28;20438;-46
2022/12/25 06:22:21;;;;;;;20.73;7.87;;;;;;;;;;4991580;28;20658;-46
2022/12/25 06:24:47;;;;;;;14.53;7.67;;;;;;;;;;4991588;28;20231;-46
2022/12/25 06:27:14;;;;;;;18.43;7.90;;;;;;;;;;4992047;28;20434;-46
2022/12/25 06:29:40;;;;;;;23.67;9.00;;;;;;;;;;4991571;28;20199;-46
2022/12/25 06:32:06;;;;;;;18.03;7.83;;;;;;;;;;4991823;28;20800;-46
2022/12/25 06:34:32;;;;;;;20.33;7.10;;;;;;;;;;4991354;28;20270;-46
2022/12/25 06:36:58;;;;;;;20.57;9.33;;;;;;;;;;4991512;28;20194;-46
2022/12/25 06:39:25;;;;;;;19.50;7.60;;;;;;;;;;4992468;28;20724;-46
2022/12/25 06:41:51;;;;;;;20.47;7.67;;;;;;;;;;4995028;28;20628;-46
2022/12/25 06:44:17;;;;;;;18.60;7.83;;;;;;;;;;4994931;28;20305;-46
2022/12/25 06:46:43;;;;;;;18.37;7.60;;;;;;;;;;4995107;28;20660;-46
2022/12/25 06:49:10;;;;;;;16.40;7.70;;;;;;;;;;4994992;28;20218;-46
2022/12/25 06:51:36;;;;;;;21.13;8.43;;;;;;;;;;4994881;28;20202;-46
2022/12/25 06:54:02;;;;;;;15.27;7.80;;;;;;;;;;5011417;28;20437;-46
2022/12/25 06:56:30;;;;;;;18.53;8.47;;;;;;;;;;5014404;28;20201;-46
2022/12/25 06:58:57;;;;;;;20.93;8.17;;;;;;;;;;5014423;28;20437;-45
2022/12/25 07:01:26;;;;;;;17.07;7.97;;;;;;;;;;5014318;28;20432;-46
2022/12/25 07:03:53;;;;;;;17.53;8.00;;;;;;;;;;5014462;28;20534;-46
2022/12/25 07:06:20;;;;;;;15.37;8.03;;;;;;;;;;5014209;28;20812;-46
2022/12/25 07:08:45;;;;;;;16.90;7.87;;;;;;;;;;5014225;28;20511;-46
2022/12/25 07:11:11;;;;;;;18.87;8.80;;;;;;;;;;5014306;28;20437;-46
2022/12/25 07:13:39;;;;;;;20.10;8.53;;;;;;;;;;5014097;28;20219;-46
2022/12/25 07:16:06;;;;;;;15.73;8.10;;;;;;;;;;5013899;28;20212;-46
2022/12/25 07:18:32;;;;;;;23.77;8.60;;;;;;;;;;5012892;28;20209;-46
2022/12/25 07:20:59;;;;;;;19.37;8.57;;;;;;;;;;5013720;28;20540;-46
2022/12/25 07:23:25;;;;;;;22.40;9.20;;;;;;;;;;5013613;28;20432;-46
2022/12/25 07:25:54;;;;;;;12.17;7.00;;;;;;;;;;5013488;28;20447;-46
2022/12/25 07:28:20;;;;;;;14.53;7.37;;;;;;;;;;5013560;28;20440;-46
2022/12/25 07:30:48;;;;;;;16.77;7.80;;;;;;;;;;5013557;28;20433;-46
2022/12/25 07:33:14;;;;;;;12.97;8.07;;;;;;;;;;5013165;28;20453;-46
2022/12/25 07:35:39;;;;;;;19.10;8.80;;;;;;;;;;5012849;28;20224;-46
2022/12/25 07:38:06;;;;;;;16.30;8.30;;;;;;;;;;5013177;28;20208;-46
2022/12/25 07:40:32;;;;;;;12.67;7.60;;;;;;;;;;5013303;28;20610;-46
2022/12/25 07:42:58;;;;;;;12.93;8.27;;;;;;;;;;5012912;28;20740;-46
2022/12/25 07:45:23;;;;;;;17.03;7.83;;;;;;;;;;5013059;28;20275;-46
2022/12/25 07:47:51;;;;;;;18.20;8.07;;;;;;;;;;5013807;28;20201;-46
2022/12/25 07:50:17;;;;;;;13.67;8.23;;;;;;;;;;5013175;28;20202;-48
2022/12/25 07:52:43;;;;;;;16.10;8.50;;;;;;;;;;5013460;28;20468;-48
2022/12/25 07:55:09;;;;;;;15.47;8.60;;;;;;;;;;5013709;28;20198;-48
2022/12/25 07:57:35;;;;;;;20.40;9.00;;;;;;;;;;5013579;28;20212;-47
2022/12/25 08:00:01;;;;;;;15.77;8.27;;;;;;;;;;5013668;28;20439;-48
2022/12/25 08:02:27;;;;;;;16.93;8.90;;;;;;;;;;5013521;28;20938;-46
2022/12/25 08:04:56;;;;;;;16.60;8.83;;;;;;;;;;5013550;28;20253;-47
2022/12/25 08:07:22;;;;;;;19.70;8.73;;;;;;;;;;5013395;28;20437;-49
2022/12/25 08:09:48;;;;;;;17.37;8.70;;;;;;;;;;5013508;28;20859;-49
2022/12/25 08:12:14;;;;;;;16.03;8.73;;;;;;;;;;5012510;28;20468;-49
2022/12/25 08:14:40;;;;;;;18.50;8.63;;;;;;;;;;5012968;28;20205;-48
2022/12/25 08:17:06;;;;;;;21.70;8.70;;;;;;;;;;5013075;28;20467;-48
2022/12/25 08:19:32;;;;;;;22.17;9.57;;;;;;;;;;5012941;28;20448;-49
2022/12/25 08:22:00;;;;;;;15.60;8.00;;;;;;;;;;5012779;28;20440;-48
2022/12/25 08:24:26;;;;;;;14.03;8.37;;;;;;;;;;5012361;28;20256;-48
2022/12/25 08:26:52;;;;;;;16.93;9.43;;;;;;;;;;5013186;28;20800;-48
2022/12/25 08:29:18;;;;;;;19.37;9.33;;;;;;;;;;5012730;28;20198;-48
2022/12/25 08:31:44;;;;;;;19.33;9.37;;;;;;;;;;5012633;28;20194;-48
2022/12/25 08:34:10;;;;;;;17.17;8.10;;;;;;;;;;5012631;28;20218;-48
2022/12/25 08:36:40;;;;;;;16.03;8.70;;;;;;;;;;5011570;28;20444;-49
2022/12/25 08:39:07;;;;;;;13.60;7.10;;;;;;;;;;5012566;28;20488;-51
2022/12/25 08:41:36;;;;;;;14.80;8.43;;;;;;;;;;5012502;28;20664;-49
2022/12/25 08:44:03;;;;;;;18.33;8.23;;;;;;;;;;5012633;28;20221;-49
2022/12/25 08:46:29;;;;;;;11.63;7.13;;;;;;;;;;5012539;28;20201;-49
2022/12/25 08:48:55;;;;;;;9.20;7.63;;;;;;;;;;5012701;28;20205;-50
2022/12/25 08:51:22;;;;;;;12.20;6.30;;;;;;;;;;5012328;28;20612;-49
2022/12/25 08:53:49;;;;;;;10.93;6.30;;;;;;;;;;5012115;28;20194;-50
2022/12/25 08:56:17;;;;;;;13.77;6.97;;;;;;;;;;5012260;28;20308;-49
2022/12/25 08:58:43;;;;;;;10.33;6.17;;;;;;;;;;5012121;28;20216;-49
2022/12/25 09:01:09;;;;;;;14.00;7.03;;;;;;;;;;5012345;28;20194;-49
2022/12/25 09:03:35;;;;;;;15.27;7.37;;;;;;;;;;5011886;28;20296;-48
2022/12/25 09:06:02;;;;;;;9.63;6.33;;;;;;;;;;5012379;28;20280;-49
2022/12/25 09:08:28;;;;;;;13.30;6.87;;;;;;;;;;5012203;28;20321;-49
2022/12/25 09:10:54;;;;;;;13.57;7.27;;;;;;;;;;5012278;28;20197;-49
2022/12/25 09:13:21;;;;;;;12.43;7.27;;;;;;;;;;5012023;28;20233;-50
2022/12/25 09:15:47;;;;;;;10.70;7.17;;;;;;;;;;5012000;28;20210;-49
2022/12/25 09:18:13;;;;;;;11.47;6.83;;;;;;;;;;5012200;28;20228;-50
2022/12/25 09:20:39;;;;;;;15.77;7.17;;;;;;;;;;5011895;28;20202;-49
2022/12/25 09:23:05;;;;;;;16.73;7.27;;;;;;;;;;5012166;28;20209;-49
2022/12/25 09:25:31;;;;;;;14.10;7.27;;;;;;;;;;5011720;28;20233;-49
2022/12/25 09:27:57;;;;;;;16.20;7.47;;;;;;;;;;5012101;28;20193;-50
2022/12/25 09:30:24;;;;;;;12.60;7.80;;;;;;;;;;5012021;28;20552;-49
2022/12/25 09:32:50;;;;;;;12.83;7.57;;;;;;;;;;5010251;28;20228;-49
2022/12/25 09:35:17;;;;;;;12.63;7.57;;;;;;;;;;5011821;28;20708;-49
2022/12/25 09:37:43;;;;;;;15.03;7.93;;;;;;;;;;5010319;28;20656;-50
2022/12/25 09:40:13;;;;;;;10.20;7.27;;;;;;;;;;5010469;28;20237;-50
2022/12/25 09:42:39;;;;;;;13.03;7.30;;;;;;;;;;5010307;28;20618;-48
2022/12/25 09:45:09;;;;;;;12.60;6.60;;;;;;;;;;5011630;28;20608;-49
2022/12/25 09:47:38;;;;;;;15.00;7.60;;;;;;;;;;5011647;28;20193;-51
2022/12/25 09:50:07;;;;;;;16.47;8.30;;;;;;;;;;5011587;28;20210;-49
2022/12/25 09:52:35;;;;;;;15.43;7.00;;;;;;;;;;5011539;28;20197;-49
2022/12/25 09:55:06;;;;;;;11.50;7.20;;;;;;;;;;5011640;28;20205;-49
2022/12/25 09:57:32;;;;;;;15.73;7.07;;;;;;;;;;5011658;28;20645;-49
2022/12/25 09:59:58;;;;;;;16.00;7.90;;;;;;;;;;5011633;28;20543;-48
2022/12/25 10:02:39;;;;;;;16.40;7.40;;;;;;;;;;5011589;28;20197;-49
2022/12/25 10:05:20;;;;;;;13.17;7.70;;;;;;;;;;5009910;28;20234;-48
2022/12/25 10:07:49;;;;;;;13.60;7.97;;;;;;;;;;5011507;28;20220;-48
2022/12/25 10:10:22;;;;;;;20.70;15.80;;;;;;;;;;5009183;28;20676;-48
2022/12/25 10:12:52;;;;;;;11.53;7.50;;;;;;;;;;5011112;28;20197;-49
2022/12/25 10:15:25;;;;;;;16.53;7.87;;;;;;;;;;5014201;28;20204;-49
2022/12/25 10:18:00;;;;;;;14.80;8.23;;;;;;;;;;5015388;28;20205;-49
2022/12/25 10:20:33;;;;;;;11.70;6.97;;;;;;;;;;5015253;28;20196;-49
2022/12/25 10:22:59;;;;;;;12.57;7.90;;;;;;;;;;5015404;28;20275;-49
2022/12/25 10:25:26;;;;;;;12.07;7.47;;;;;;;;;;5015100;28;20233;-49
2022/12/25 10:27:53;;;;;;;9.33;6.70;;;;;;;;;;5015093;28;20203;-48
2022/12/25 10:30:21;;;;;;;13.40;6.70;;;;;;;;;;5014980;28;20719;-48
2022/12/25 10:32:47;;;;;;;12.17;7.37;;;;;;;;;;5014829;28;20202;-48
2022/12/25 10:35:14;;;;;;;12.53;7.20;;;;;;;;;;5015066;28;20292;-48
2022/12/25 10:37:42;;;;;;;11.17;6.87;;;;;;;;;;5014890;28;20201;-48
2022/12/25 10:40:22;;;;;;;15.33;7.53;;;;;;;;;;5014449;28;20245;-49
2022/12/25 10:42:50;;;;;;;13.23;7.43;;;;;;;;;;5014774;28;20275;-50
2022/12/25 10:45:16;;;;;;;12.03;7.53;;;;;;;;;;5014830;28;20287;-49
2022/12/25 10:47:42;;;;;;;10.03;6.97;;;;;;;;;;5014391;28;20209;-49
2022/12/25 10:50:09;;;;;;;24.17;16.83;;;;;;;;;;5014387;28;20668;-49
2022/12/25 10:52:35;;;;;;;11.37;7.13;;;;;;;;;;5014333;28;20224;-48
2022/12/25 10:55:11;;;;;;;11.43;6.73;;;;;;;;;;5014228;28;20653;-49
2022/12/25 10:57:44;;;;;;;12.37;6.77;;;;;;;;;;5014107;28;20221;-48
2022/12/25 11:00:18;;;;;;;13.77;7.27;;;;;;;;;;5014212;28;20644;-48
2022/12/25 11:02:44;;;;;;;13.47;6.90;;;;;;;;;;5014032;28;20630;-48
2022/12/25 11:05:13;;;;;;;11.60;5.93;;;;;;;;;;5014030;28;20763;-48
2022/12/25 11:07:53;;;;;;;8.73;6.40;;;;;;;;;;5013891;28;20201;-48
2022/12/25 11:10:22;;;;;;;10.07;6.40;;;;;;;;;;5013879;28;20663;-48
2022/12/25 11:12:48;;;;;;;13.17;6.53;;;;;;;;;;5013675;28;20207;-48
2022/12/25 11:15:30;;;;;;;9.50;6.80;;;;;;;;;;5013803;28;20204;-47
2022/12/25 11:17:56;;;;;;;10.67;6.17;;;;;;;;;;5013909;28;20248;-48
2022/12/25 11:20:22;;;;;;;13.47;6.43;;;;;;;;;;5013768;28;20198;-48
2022/12/25 11:22:48;;;;;;;9.87;6.30;;;;;;;;;;5013883;28;20202;-48
2022/12/25 11:25:20;;;;;;;11.60;6.50;;;;;;;;;;5013573;28;20663;-49
2022/12/25 11:27:55;;;;;;;7.17;6.23;;;;;;;;;;5013233;28;20202;-48
2022/12/25 11:30:21;;;;;;;12.27;6.77;;;;;;;;;;5013065;28;20204;-48
2022/12/25 11:32:54;;;;;;;10.80;6.93;;;;;;;;;;5013391;28;20204;-48
2022/12/25 11:35:21;;;;;;;14.47;6.70;;;;;;;;;;5013660;28;20217;-49
2022/12/25 11:37:48;;;;;;;9.87;6.67;;;;;;;;;;5013656;28;20215;-48
2022/12/25 11:40:15;;;;;;;8.57;6.33;;;;;;;;;;5013659;28;20245;-48
2022/12/25 11:42:43;;;;;;;12.00;6.93;;;;;;;;;;5013435;28;20622;-49
2022/12/25 11:45:12;;;;;;;9.83;6.17;;;;;;;;;;5013548;28;20228;-48
2022/12/25 11:47:41;;;;;;;11.30;6.80;;;;;;;;;;5013271;28;20219;-49
2022/12/25 11:50:19;;;;;;;10.37;6.57;;;;;;;;;;5013429;28;20193;-48
2022/12/25 11:52:46;;;;;;;14.13;6.43;;;;;;;;;;5013356;28;20245;-48
2022/12/25 11:55:16;;;;;;;12.10;6.27;;;;;;;;;;5013278;28;20631;-49
2022/12/25 11:57:43;;;;;;;11.13;6.80;;;;;;;;;;5013100;28;20205;-49
2022/12/25 12:00:13;;;;;;;12.27;6.97;;;;;;;;;;5013207;28;20201;-49
2022/12/25 12:02:43;;;;;;;10.30;6.40;;;;;;;;;;5013078;28;20209;-49
2022/12/25 12:05:14;;;;;;;14.63;6.37;;;;;;;;;;5010906;28;20702;-48
2022/12/25 12:07:44;;;;;;;13.67;8.20;;;;;;;;;;5009325;28;20229;-48
2022/12/25 12:10:14;;;;;;;10.07;6.50;;;;;;;;;;5025776;28;20197;-48
2022/12/25 12:12:43;;;;;;;9.93;7.00;;;;;;;;;;5030288;28;20201;-48
2022/12/25 12:15:15;;;;;;;9.40;6.70;;;;;;;;;;5029016;28;20565;-48
2022/12/25 12:17:41;;;;;;;9.23;6.30;;;;;;;;;;5030575;28;20197;-48
2022/12/25 12:20:10;;;;;;;8.33;5.83;;;;;;;;;;5032084;28;20243;-48
2022/12/25 12:22:36;;;;;;;10.73;5.60;;;;;;;;;;5032051;28;20205;-48
2022/12/25 12:25:06;;;;;;;8.10;5.83;;;;;;;;;;5032078;28;20224;-49
2022/12/25 12:27:34;;;;;;;8.00;5.73;;;;;;;;;;5032050;28;20259;-48
2022/12/25 12:30:00;;;;;;;13.53;6.33;;;;;;;;;;5032044;28;20196;-49
2022/12/25 12:32:35;;;;;;;6.10;5.17;;;;;;;;;;5032024;28;20265;-49
2022/12/25 12:35:06;;;;;;;8.30;5.40;;;;;;;;;;5032028;28;20695;-49
2022/12/25 12:37:33;;;;;;;9.63;5.50;;;;;;;;;;5031437;28;20232;-48
2022/12/25 12:39:59;;;;;;;10.40;5.23;;;;;;;;;;5031916;28;20243;-47
2022/12/25 12:42:27;;;;;;;9.30;5.57;;;;;;;;;;5031842;28;20201;-47
2022/12/25 12:44:53;;;;;;;8.20;5.77;;;;;;;;;;5031693;28;20350;-48
2022/12/25 12:47:28;;;;;;;10.87;5.93;;;;;;;;;;5031754;28;20204;-46
2022/12/25 12:49:58;;;;;;;8.07;5.80;;;;;;;;;;5031563;28;20336;-47
2022/12/25 12:52:25;;;;;;;9.97;6.33;;;;;;;;;;5031761;28;20197;-47
2022/12/25 12:54:54;;;;;;;11.07;6.17;;;;;;;;;;5031967;28;20544;-47
2022/12/25 12:57:22;;;;;;;10.10;6.20;;;;;;;;;;5031872;28;20280;-46
2022/12/25 12:59:48;;;;;;;11.07;6.70;;;;;;;;;;5031616;28;20205;-48
2022/12/25 13:02:29;;;;;;;13.10;7.17;;;;;;;;;;5031837;28;20717;-46
2022/12/25 13:04:59;;;;;;;11.23;6.93;;;;;;;;;;5028663;28;20231;-46
2022/12/25 13:07:34;;;;;;;14.80;7.13;;;;;;;;;;5031660;28;20197;-46
2022/12/25 13:10:03;;;;;;;13.83;8.03;;;;;;;;;;5031668;28;20204;-47
2022/12/25 13:12:29;;;;;;;10.83;7.03;;;;;;;;;;5031039;28;20674;-47
2022/12/25 13:14:55;;;;;;;10.97;7.57;;;;;;;;;;5030946;28;20255;-47
2022/12/25 13:17:25;;;;;;;14.37;7.93;;;;;;;;;;5031579;28;20193;-46
2022/12/25 13:19:53;;;;;;;12.77;7.93;;;;;;;;;;5031142;28;20201;-47
2022/12/25 13:22:23;;;;;;;11.20;8.10;;;;;;;;;;5031174;28;20296;-47
2022/12/25 13:24:55;;;;;;;17.13;8.67;;;;;;;;;;5031187;28;20675;-47
2022/12/25 13:27:21;;;;;;;12.93;8.57;;;;;;;;;;5031346;28;20681;-48
2022/12/25 13:29:47;;;;;;;14.03;9.17;;;;;;;;;;5030916;28;20204;-47
2022/12/25 13:32:18;;;;;;;11.20;8.67;;;;;;;;;;5030778;28;20234;-48
2022/12/25 13:34:44;;;;;;;13.17;8.53;;;;;;;;;;5030819;28;20209;-48
2022/12/25 13:37:13;;;;;;;13.23;8.10;;;;;;;;;;5028530;28;20197;-48
2022/12/25 13:40:00;;;;;;;16.73;9.33;;;;;;;;;;5030567;28;20236;-49
2022/12/25 13:42:27;;;;;;;13.80;8.50;;;;;;;;;;5031055;28;20201;-47
2022/12/25 13:44:54;;;;;;;13.13;9.00;;;;;;;;;;5030694;28;20228;-47
2022/12/25 13:47:23;;;;;;;17.43;8.53;;;;;;;;;;5030729;28;20246;-47
2022/12/25 13:49:49;;;;;;;12.90;8.43;;;;;;;;;;5032431;28;20864;-47
2022/12/25 13:52:16;;;;;;;16.83;8.90;;;;;;;;;;5035200;28;20219;-48
2022/12/25 13:54:53;;;;;;;14.27;8.00;;;;;;;;;;5035002;28;20204;-47
2022/12/25 13:57:20;;;;;;;10.10;8.17;;;;;;;;;;5035208;28;20212;-47
2022/12/25 13:59:46;;;;;;;14.27;8.50;;;;;;;;;;5034683;28;20240;-47
2022/12/25 14:02:17;;;;;;;14.83;8.50;;;;;;;;;;5035036;28;20192;-47
2022/12/25 14:04:43;;;;;;;14.37;8.47;;;;;;;;;;5034555;28;20224;-48
2022/12/25 14:07:10;;;;;;;15.90;9.47;;;;;;;;;;5035019;28;20304;-47
2022/12/25 14:09:37;;;;;;;10.93;8.20;;;;;;;;;;5034924;28;20208;-48
2022/12/25 14:12:05;;;;;;;12.70;8.87;;;;;;;;;;5034981;28;20211;-48
2022/12/25 14:14:31;;;;;;;16.50;10.63;;;;;;;;;;5034622;28;20636;-48
2022/12/25 14:16:58;;;;;;;14.53;8.20;;;;;;;;;;5034749;28;20300;-49
2022/12/25 14:19:26;;;;;;;11.80;7.47;;;;;;;;;;5033332;28;20617;-47
2022/12/25 14:21:54;;;;;;;16.53;10.10;;;;;;;;;;5034252;28;20193;-46
2022/12/25 14:24:22;;;;;;;13.70;8.80;;;;;;;;;;5034286;28;20221;-47
2022/12/25 14:26:55;;;;;;;12.13;8.47;;;;;;;;;;5034530;28;20209;-47
2022/12/25 14:29:23;;;;;;;9.20;7.53;;;;;;;;;;5034280;28;20201;-47
2022/12/25 14:31:49;;;;;;;14.90;7.93;;;;;;;;;;5034120;28;20216;-47
2022/12/25 14:34:16;;;;;;;10.57;8.30;;;;;;;;;;5034113;28;20209;-48
2022/12/25 14:36:42;;;;;;;12.03;7.50;;;;;;;;;;5033893;28;20632;-48
2022/12/25 14:39:22;;;;;;;10.87;7.87;;;;;;;;;;5033950;28;20236;-47
2022/12/25 14:41:51;;;;;;;9.53;7.23;;;;;;;;;;5034141;28;20200;-47
2022/12/25 14:44:29;;;;;;;13.53;7.80;;;;;;;;;;5034136;28;20592;-47
2022/12/25 14:47:02;;;;;;;10.50;6.57;;;;;;;;;;5034116;28;20207;-48
2022/12/25 14:49:31;;;;;;;10.27;6.83;;;;;;;;;;5033761;28;20221;-47
2022/12/25 14:51:57;;;;;;;12.70;7.20;;;;;;;;;;5033967;28;20213;-48
2022/12/25 14:54:23;;;;;;;14.80;7.30;;;;;;;;;;5033614;28;20646;-47
2022/12/25 14:56:50;;;;;;;8.43;6.53;;;;;;;;;;5033664;28;20219;-48
2022/12/25 14:59:18;;;;;;;11.07;6.60;;;;;;;;;;5033757;28;20208;-47
2022/12/25 15:01:49;;;;;;;7.83;5.97;;;;;;;;;;5033366;28;20236;-47
2022/12/25 15:04:16;;;;;;;11.20;6.67;;;;;;;;;;5033815;28;20304;-47
2022/12/25 15:06:52;;;;;;;8.20;6.67;;;;;;;;;;5033416;28;20677;-48
2022/12/25 15:09:18;;;;;;;9.83;7.00;;;;;;;;;;5032729;28;20258;-48
2022/12/25 15:11:46;;;;;;;8.87;7.10;;;;;;;;;;5032019;28;20557;-48
2022/12/25 15:14:12;;;;;;;11.53;10.20;;;;;;;;;;5034014;28;20205;-48
2022/12/25 15:16:41;;;;;;;10.30;7.07;;;;;;;;;;5033881;28;20212;-48
2022/12/25 15:19:09;;;;;;;9.10;6.40;;;;;;;;;;5033953;28;20207;-49
2022/12/25 15:21:36;;;;;;;7.33;6.17;;;;;;;;;;5034048;28;20197;-49
2022/12/25 15:24:02;;;;;;;8.77;6.57;;;;;;;;;;5033862;28;20227;-49
2022/12/25 15:26:29;;;;;;;8.27;6.50;;;;;;;;;;5033862;28;20565;-48
2022/12/25 15:28:55;;;;;;;9.07;6.50;;;;;;;;;;5033792;28;20201;-47
2022/12/25 15:31:22;;;;;;;8.07;6.07;;;;;;;;;;5033898;28;20564;-47
2022/12/25 15:33:48;;;;;;;6.87;6.13;;;;;;;;;;5033480;28;20258;-48
2022/12/25 15:36:15;;;;;;;7.53;6.80;;;;;;;;;;5033393;28;20201;-48
2022/12/25 15:38:41;;;;;;;6.80;5.13;;;;;;;;;;5033462;28;20201;-48
2022/12/25 15:41:10;;;;;;;7.60;6.50;;;;;;;;;;5033139;28;20225;-48
2022/12/25 15:43:36;;;;;;;8.53;5.90;;;;;;;;;;5033476;28;20215;-48
2022/12/25 15:46:02;;;;;;;8.40;6.27;;;;;;;;;;5033491;28;20221;-48
2022/12/25 15:48:28;;;;;;;9.03;6.30;;;;;;;;;;5033431;28;20570;-48
2022/12/25 15:50:54;;;;;;;7.17;5.80;;;;;;;;;;5033318;28;20207;-49
2022/12/25 15:53:22;;;;;;;7.57;6.10;;;;;;;;;;5033390;28;20541;-46
2022/12/25 15:55:48;;;;;;;9.87;6.87;;;;;;;;;;5033308;28;20201;-47
2022/12/25 15:58:14;;;;;;;7.50;6.80;;;;;;;;;;5033403;28;20205;-47
2022/12/25 16:00:40;;;;;;;8.80;6.50;;;;;;;;;;5033314;28;20538;-48
2022/12/25 16:03:06;;;;;;;7.90;6.40;;;;;;;;;;5019290;28;20232;-47
2022/12/25 16:05:32;;;;;;;7.20;6.50;;;;;;;;;;5013377;28;20222;-48
2022/12/25 16:07:57;;;;;;;7.87;6.43;;;;;;;;;;5013417;28;20205;-48
2022/12/25 16:10:25;;;;;;;8.20;6.60;;;;;;;;;;5013442;28;20683;-48